createdAt,value
2024-03-08T07:38:11.513Z,66.25
2024-03-08T07:40:41.743Z,60.25
2024-03-08T07:43:08.923Z,55.25
2024-03-08T07:45:37.434Z,62.00
2024-03-08T07:48:04.439Z,60.25
2024-03-08T07:50:31.384Z,59.50
2024-03-08T07:52:58.014Z,64.25
2024-03-08T07:55:25.740Z,60.50
2024-03-08T07:57:52.332Z,54.25
2024-03-08T08:00:19.877Z,54.25
2024-03-08T08:02:50.857Z,62.75
2024-03-08T08:05:19.522Z,50.67
2024-03-08T08:07:49.123Z,58.25
2024-03-08T08:10:23.368Z,47.67
2024-03-08T08:12:50.409Z,51.67
2024-03-08T08:15:16.912Z,50.00
2024-03-08T08:17:43.995Z,46.50
2024-03-08T08:20:12.769Z,41.33
2024-03-08T08:22:41.121Z,48.33
2024-03-08T08:25:08.268Z,45.67
2024-03-08T08:27:34.800Z,70.50
2024-03-08T08:30:01.966Z,69.00
2024-03-08T08:32:28.534Z,62.00
2024-03-08T08:34:55.110Z,64.75
2024-03-08T08:37:22.969Z,47.25
2024-03-08T08:39:52.631Z,64.25
2024-03-08T08:42:19.181Z,63.00
2024-03-08T08:44:45.903Z,59.75
2024-03-08T08:47:15.775Z,60.50
2024-03-08T08:49:44.213Z,44.67
2024-03-08T08:52:16.499Z,47.67
2024-03-08T08:54:48.731Z,50.33
2024-03-08T08:57:17.181Z,41.25
2024-03-08T08:59:43.723Z,45.00
2024-03-08T09:02:12.157Z,40.75
2024-03-08T09:04:40.168Z,41.50
2024-03-08T09:07:07.774Z,39.00
2024-03-08T09:09:34.406Z,38.25
2024-03-08T09:12:01.143Z,38.00
2024-03-08T09:14:27.831Z,44.50
2024-03-08T09:16:54.391Z,38.25
2024-03-08T09:19:21.034Z,41.00
2024-03-08T09:21:48.189Z,31.50
2024-03-08T09:24:14.721Z,38.25
2024-03-08T09:26:43.370Z,34.50
2024-03-08T09:29:11.963Z,35.50
2024-03-08T09:31:39.372Z,40.50
2024-03-08T09:34:05.938Z,36.50
2024-03-08T09:36:34.106Z,34.50
2024-03-08T09:39:01.878Z,36.75
2024-03-08T09:41:28.578Z,25.25
2024-03-08T09:43:57.154Z,29.00
2024-03-08T09:46:24.562Z,24.50
2024-03-08T09:48:51.219Z,28.50
2024-03-08T09:51:17.745Z,26.50
2024-03-08T09:53:44.415Z,25.75
2024-03-08T09:56:13.543Z,23.25
2024-03-08T09:58:55.606Z,26.75
2024-03-08T10:01:22.846Z,22.25
2024-03-08T10:03:50.264Z,28.25
2024-03-08T10:06:16.991Z,27.50
2024-03-08T10:08:46.044Z,27.50
2024-03-08T10:11:13.006Z,19.50
2024-03-08T10:13:41.697Z,23.75
2024-03-08T10:16:09.700Z,18.50
2024-03-08T10:18:36.355Z,21.00
2024-03-08T10:21:05.174Z,25.25
2024-03-08T10:23:32.547Z,29.00
2024-03-08T10:25:59.728Z,27.00
2024-03-08T10:28:26.387Z,27.75
2024-03-08T10:30:53.045Z,28.00
2024-03-08T10:33:19.526Z,23.75
2024-03-08T10:35:46.062Z,24.50
2024-03-08T10:38:15.090Z,18.00
2024-03-08T10:40:42.723Z,25.25
2024-03-08T10:43:12.178Z,24.75
2024-03-08T10:45:42.795Z,23.75
2024-03-08T10:48:17.134Z,25.00
2024-03-08T10:50:46.761Z,23.50
2024-03-08T10:53:15.023Z,31.25
2024-03-08T10:55:45.092Z,29.25
2024-03-08T10:58:11.854Z,37.50
2024-03-08T11:00:38.332Z,26.00
2024-03-08T11:03:05.273Z,25.25
2024-03-08T11:05:41.626Z,21.75
2024-03-08T11:08:15.766Z,29.50
2024-03-08T11:10:54.057Z,24.75
2024-03-08T11:13:41.736Z,24.00
2024-03-08T11:16:10.599Z,26.75
2024-03-08T11:18:38.824Z,23.50
2024-03-08T11:21:09.423Z,25.00
2024-03-08T11:23:36.617Z,21.25
2024-03-08T11:26:06.110Z,24.75
2024-03-08T11:28:33.073Z,29.50
2024-03-08T11:31:02.783Z,26.75
2024-03-08T11:33:30.087Z,25.00
2024-03-08T11:36:12.585Z,25.00
2024-03-08T11:38:43.159Z,24.50
2024-03-08T11:41:09.740Z,22.75
2024-03-08T11:43:36.827Z,23.00
2024-03-08T11:46:09.906Z,25.00
2024-03-08T11:48:37.077Z,26.00
2024-03-08T11:51:04.388Z,27.50
2024-03-08T11:53:30.948Z,23.25
2024-03-08T11:56:06.826Z,25.75
2024-03-08T11:58:33.528Z,30.00
2024-03-08T12:01:18.240Z,29.50
2024-03-08T12:03:44.890Z,21.00
2024-03-08T12:06:11.636Z,28.00
2024-03-08T12:08:38.160Z,19.50
2024-03-08T12:11:08.101Z,29.75
2024-03-08T12:13:35.489Z,27.50
2024-03-08T12:16:05.648Z,30.00
2024-03-08T12:18:36.307Z,33.75
2024-03-08T12:21:07.300Z,38.00
2024-03-08T12:23:35.012Z,31.50
2024-03-08T12:26:15.397Z,27.00
2024-03-08T12:28:43.861Z,26.75
2024-03-08T12:31:18.082Z,29.25
2024-03-08T12:33:53.771Z,25.00
2024-03-08T12:36:22.176Z,21.50
2024-03-08T12:38:51.857Z,26.00
2024-03-08T12:41:19.895Z,39.50
2024-03-08T12:43:50.150Z,27.25
2024-03-08T12:46:23.669Z,26.00
2024-03-08T12:48:50.326Z,24.75
2024-03-08T12:51:20.539Z,18.50
2024-03-08T12:53:47.762Z,18.00
2024-03-08T12:56:16.434Z,29.00
2024-03-08T12:58:44.226Z,26.00
2024-03-08T13:01:13.286Z,25.75
2024-03-08T13:03:41.078Z,18.50
2024-03-08T13:06:10.706Z,23.00
2024-03-08T13:08:40.376Z,28.25
2024-03-08T13:11:12.878Z,23.50
2024-03-08T13:13:41.439Z,28.75
2024-03-08T13:16:11.146Z,25.25
2024-03-08T13:18:38.275Z,27.50
2024-03-08T13:21:09.766Z,24.75
2024-03-08T13:23:40.778Z,26.00
2024-03-08T13:26:08.569Z,25.50
2024-03-08T13:28:38.338Z,22.50
2024-03-08T13:31:08.041Z,21.00
2024-03-08T13:33:38.050Z,21.25
2024-03-08T13:36:06.914Z,26.50
2024-03-08T13:38:34.152Z,19.00
2024-03-08T13:41:00.890Z,27.50
2024-03-08T13:43:31.664Z,21.25
2024-03-08T13:45:58.129Z,20.75
2024-03-08T13:48:25.296Z,23.50
2024-03-08T13:50:53.030Z,26.25
2024-03-08T13:53:19.833Z,26.00
2024-03-08T13:55:47.213Z,28.75
2024-03-08T13:58:15.419Z,26.75
2024-03-08T14:00:48.816Z,37.25
2024-03-08T14:03:15.808Z,49.25
2024-03-08T14:05:44.179Z,60.33
2024-03-08T14:08:13.990Z,44.50
2024-03-08T14:10:40.722Z,39.00
2024-03-08T14:13:08.903Z,25.75
2024-03-08T14:15:43.443Z,28.25
2024-03-08T14:18:10.220Z,18.00
2024-03-08T14:20:37.029Z,26.00
2024-03-08T14:23:04.358Z,16.75
2024-03-08T14:25:31.420Z,29.00
2024-03-08T14:28:05.733Z,43.25
2024-03-08T14:30:42.721Z,29.75
2024-03-08T14:33:12.416Z,36.25
2024-03-08T14:35:39.670Z,43.25
2024-03-08T14:38:10.182Z,26.00
2024-03-08T14:40:37.549Z,27.75
2024-03-08T14:43:06.768Z,22.00
2024-03-08T14:45:33.578Z,26.25
2024-03-08T14:48:01.045Z,27.00
2024-03-08T14:50:27.639Z,24.75
2024-03-08T14:52:54.436Z,28.00
2024-03-08T14:55:23.418Z,26.25
2024-03-08T14:57:52.123Z,21.00
2024-03-08T15:00:28.108Z,21.25
2024-03-08T15:02:55.322Z,18.50
2024-03-08T15:05:27.675Z,32.75
2024-03-08T15:07:57.362Z,18.50
2024-03-08T15:10:26.946Z,20.00
2024-03-08T15:12:57.403Z,18.25
2024-03-08T15:15:27.460Z,21.00
2024-03-08T15:17:56.725Z,31.00
2024-03-08T15:20:31.062Z,27.00
2024-03-08T15:23:00.283Z,36.25
2024-03-08T15:25:27.248Z,21.75
2024-03-08T15:27:54.802Z,21.50
2024-03-08T15:30:27.492Z,50.50
2024-03-08T15:32:58.258Z,73.00
2024-03-08T15:35:27.064Z,28.50
2024-03-08T15:37:54.204Z,56.00
2024-03-08T15:40:23.792Z,32.00
2024-03-08T15:42:56.002Z,38.25
2024-03-08T15:45:24.452Z,41.25
2024-03-08T15:47:51.691Z,35.25
2024-03-08T15:50:18.843Z,34.00
2024-03-08T16:08:39.750Z,29.25
2024-03-08T16:13:48.105Z,26.75
2024-03-08T16:16:14.667Z,30.75
2024-03-08T16:18:41.286Z,28.75
2024-03-08T16:21:10.738Z,23.50
2024-03-08T16:23:37.792Z,20.25
2024-03-08T16:26:06.356Z,28.25
2024-03-08T16:28:40.448Z,18.25
2024-03-08T16:31:09.311Z,15.00
2024-03-08T16:33:39.265Z,19.25
2024-03-08T16:36:05.881Z,16.25
2024-03-08T16:38:35.085Z,23.75
2024-03-08T16:41:05.907Z,13.50
2024-03-08T16:43:33.943Z,19.25
2024-03-08T16:46:05.242Z,17.25
2024-03-08T16:48:32.893Z,15.00
2024-03-08T16:50:59.772Z,16.50
2024-03-08T16:53:26.451Z,22.00
2024-03-08T16:55:54.167Z,20.50
2024-03-08T16:58:22.964Z,16.00
2024-03-08T17:00:49.941Z,13.25
2024-03-08T17:03:18.221Z,15.50
2024-03-08T17:05:55.402Z,22.00
2024-03-08T17:08:23.256Z,25.50
2024-03-08T17:10:50.318Z,22.00
2024-03-08T17:13:19.870Z,18.25
2024-03-08T17:15:50.054Z,25.25
2024-03-08T17:18:17.486Z,24.25
2024-03-08T17:20:44.740Z,24.25
